createdAt,value
2018-02-27T00:02:17.380Z,30.93
2018-02-27T00:04:46.745Z,32.07
2018-02-27T00:07:16.108Z,31.43
2018-02-27T00:09:45.507Z,30.73
2018-02-27T00:12:14.874Z,31.20
2018-02-27T00:14:44.240Z,32.13
2018-02-27T00:17:13.628Z,30.63
2018-02-27T00:19:43.005Z,32.20
2018-02-27T00:22:12.392Z,32.00
2018-02-27T00:24:41.781Z,29.43
2018-02-27T00:27:11.172Z,31.97
2018-02-27T00:29:40.540Z,33.80
2018-02-27T00:32:09.945Z,32.13
2018-02-27T00:34:39.332Z,31.33
2018-02-27T00:37:08.697Z,32.20
2018-02-27T00:39:38.080Z,31.47
2018-02-27T00:42:07.454Z,28.93
2018-02-27T00:44:37.004Z,27.60
2018-02-27T00:47:06.488Z,26.57
2018-02-27T00:49:35.925Z,28.40
2018-02-27T00:52:05.303Z,28.03
2018-02-27T00:54:34.677Z,26.33
2018-02-27T00:57:04.065Z,27.47
2018-02-27T00:59:33.420Z,26.33
2018-02-27T01:02:02.846Z,26.97
2018-02-27T01:04:32.208Z,26.43
2018-02-27T01:07:01.577Z,28.13
2018-02-27T01:09:30.982Z,25.30
2018-02-27T01:12:00.349Z,26.57
2018-02-27T01:14:29.748Z,25.23
2018-02-27T01:16:59.106Z,26.43
2018-02-27T01:19:28.493Z,26.17
2018-02-27T01:21:57.861Z,26.17
2018-02-27T01:24:27.255Z,26.27
2018-02-27T01:26:56.663Z,25.93
2018-02-27T01:29:26.019Z,25.43
2018-02-27T01:31:55.406Z,25.77
2018-02-27T01:34:24.785Z,24.63
2018-02-27T01:36:54.177Z,24.70
2018-02-27T01:39:23.540Z,23.53
2018-02-27T01:41:52.901Z,23.23
2018-02-27T01:44:22.290Z,22.13
2018-02-27T01:46:51.657Z,22.60
2018-02-27T01:49:21.081Z,24.27
2018-02-27T01:51:50.700Z,23.33
2018-02-27T01:54:20.072Z,22.00
2018-02-27T01:56:49.451Z,22.50
2018-02-27T01:59:18.836Z,21.87
2018-02-27T02:01:48.200Z,23.03
2018-02-27T02:04:17.573Z,22.13
2018-02-27T02:06:46.958Z,24.30
2018-02-27T02:09:16.330Z,23.47
2018-02-27T02:11:45.701Z,21.77
2018-02-27T02:14:15.107Z,23.17
2018-02-27T02:16:44.469Z,22.60
2018-02-27T02:19:13.489Z,21.87
2018-02-27T02:21:43.010Z,24.43
2018-02-27T02:24:12.361Z,22.80
2018-02-27T02:26:41.758Z,23.67
2018-02-27T02:29:11.121Z,21.77
2018-02-27T02:31:40.500Z,22.10
2018-02-27T02:34:09.890Z,23.00
2018-02-27T02:36:39.265Z,23.37
2018-02-27T02:39:08.648Z,22.17
2018-02-27T02:41:38.022Z,22.63
2018-02-27T02:44:07.428Z,21.70
2018-02-27T02:46:36.831Z,21.67
2018-02-27T02:49:06.196Z,22.97
2018-02-27T02:51:35.586Z,21.87
2018-02-27T02:54:04.965Z,23.63
2018-02-27T02:56:34.344Z,23.53
2018-02-27T02:59:03.774Z,23.00
2018-02-27T03:01:33.141Z,22.40
2018-02-27T03:04:02.530Z,23.43
2018-02-27T03:06:31.897Z,22.57
2018-02-27T03:09:01.268Z,22.30
2018-02-27T03:11:30.757Z,21.50
2018-02-27T03:14:00.197Z,21.03
2018-02-27T03:16:29.670Z,22.07
2018-02-27T03:18:59.115Z,21.13
2018-02-27T03:21:28.572Z,21.80
2018-02-27T03:23:57.702Z,23.77
2018-02-27T03:26:27.380Z,20.30
2018-02-27T03:28:56.846Z,21.77
2018-02-27T03:31:26.298Z,22.80
2018-02-27T03:33:55.737Z,21.97
2018-02-27T03:36:25.197Z,22.43
2018-02-27T03:38:54.655Z,20.27
2018-02-27T03:41:24.113Z,22.40
2018-02-27T03:43:53.594Z,22.53
2018-02-27T03:46:23.040Z,21.87
2018-02-27T03:48:52.618Z,23.17
2018-02-27T03:51:22.069Z,21.20
2018-02-27T03:53:51.537Z,20.53
2018-02-27T03:56:21.009Z,23.03
2018-02-27T03:58:50.469Z,22.97
2018-02-27T04:01:19.942Z,23.20
2018-02-27T04:03:49.407Z,21.27
2018-02-27T04:06:18.870Z,22.37
2018-02-27T04:08:48.351Z,21.50
2018-02-27T04:11:17.822Z,23.10
2018-02-27T04:13:47.286Z,24.00
2018-02-27T04:16:16.749Z,23.07
2018-02-27T04:18:46.214Z,22.77
2018-02-27T04:21:15.683Z,25.50
2018-02-27T04:23:45.238Z,24.00
2018-02-27T04:26:14.786Z,23.53
2018-02-27T04:28:44.247Z,23.77
2018-02-27T04:31:13.721Z,24.17
2018-02-27T04:33:43.185Z,23.80
2018-02-27T04:36:12.665Z,23.17
2018-02-27T04:38:42.125Z,22.93
2018-02-27T04:41:11.585Z,23.83
2018-02-27T04:43:41.029Z,24.57
2018-02-27T04:46:10.489Z,25.70
2018-02-27T04:48:39.989Z,23.93
2018-02-27T04:51:09.662Z,24.10
2018-02-27T04:53:39.144Z,24.63
2018-02-27T04:56:08.651Z,24.30
2018-02-27T04:58:38.117Z,25.20
2018-02-27T05:01:07.562Z,25.43
2018-02-27T05:03:37.041Z,25.37
2018-02-27T05:06:06.481Z,24.23
2018-02-27T05:08:35.939Z,24.23
2018-02-27T05:11:05.425Z,23.30
2018-02-27T05:13:34.875Z,23.67
2018-02-27T05:16:04.460Z,23.43
2018-02-27T05:18:34.046Z,24.93
2018-02-27T05:21:03.501Z,25.53
2018-02-27T05:23:32.963Z,25.67
2018-02-27T05:26:02.426Z,25.20
2018-02-27T05:28:31.889Z,24.37
2018-02-27T05:31:01.354Z,24.53
2018-02-27T05:33:30.823Z,25.63
2018-02-27T05:36:00.316Z,25.00
2018-02-27T05:38:29.777Z,25.60
2018-02-27T05:40:59.328Z,24.57
2018-02-27T05:43:28.794Z,26.27
2018-02-27T05:45:58.267Z,26.33
2018-02-27T05:48:27.733Z,23.93
2018-02-27T05:50:57.207Z,27.20
2018-02-27T05:53:26.677Z,24.70
2018-02-27T05:55:56.165Z,25.50
2018-02-27T05:58:25.629Z,26.33
2018-02-27T06:00:55.085Z,25.90
2018-02-27T06:03:24.573Z,27.27
2018-02-27T06:05:54.041Z,26.17
2018-02-27T06:08:23.496Z,25.07
2018-02-27T06:10:54.244Z,26.37
2018-02-27T06:13:23.713Z,26.40
2018-02-27T06:15:53.161Z,26.23
2018-02-27T06:18:22.613Z,26.23
2018-02-27T06:20:51.739Z,25.30
2018-02-27T06:23:21.239Z,24.97
2018-02-27T06:25:50.705Z,26.67
2018-02-27T06:28:20.159Z,26.57
2018-02-27T06:30:49.650Z,26.93
2018-02-27T06:33:19.146Z,26.50
2018-02-27T06:35:48.598Z,25.70
2018-02-27T06:38:18.066Z,26.60
2018-02-27T06:40:47.865Z,26.70
2018-02-27T06:43:17.538Z,26.47
2018-02-27T06:45:46.789Z,26.43
2018-02-27T06:48:16.254Z,27.13
2018-02-27T06:50:45.364Z,26.57
2018-02-27T06:53:14.821Z,26.30
2018-02-27T06:55:44.283Z,26.53
2018-02-27T06:58:13.734Z,26.07
2018-02-27T07:00:43.201Z,26.43
2018-02-27T07:03:12.665Z,27.07
2018-02-27T07:05:42.125Z,25.77
2018-02-27T07:08:11.566Z,27.80
2018-02-27T07:10:41.037Z,26.37
2018-02-27T07:13:10.474Z,25.57
2018-02-27T07:15:39.914Z,27.30
2018-02-27T07:18:09.384Z,26.47
2018-02-27T07:20:38.822Z,26.93
2018-02-27T07:23:08.309Z,23.80
2018-02-27T07:25:37.758Z,25.63
2018-02-27T07:28:07.035Z,25.73
2018-02-27T07:30:36.481Z,26.60
2018-02-27T07:33:06.042Z,25.87
2018-02-27T07:35:38.505Z,27.23
2018-02-27T07:38:07.965Z,24.80
2018-02-27T07:40:37.406Z,26.27
2018-02-27T07:43:06.850Z,24.10
2018-02-27T07:45:36.311Z,26.03
2018-02-27T07:48:05.749Z,24.83
2018-02-27T07:50:35.206Z,25.63
2018-02-27T07:53:04.653Z,25.10
2018-02-27T07:55:34.113Z,24.70
2018-02-27T07:58:03.560Z,25.33
2018-02-27T08:00:33.024Z,24.67
2018-02-27T08:03:02.475Z,25.87
2018-02-27T08:05:31.955Z,21.63
2018-02-27T08:08:01.409Z,24.47
2018-02-27T08:10:30.965Z,18.47
2018-02-27T08:13:00.425Z,23.07
2018-02-27T08:15:29.878Z,26.80
2018-02-27T08:17:59.337Z,24.10
2018-02-27T08:20:28.921Z,26.27
2018-02-27T08:22:58.677Z,24.30
2018-02-27T08:25:28.121Z,24.87
2018-02-27T08:27:57.581Z,19.00
2018-02-27T08:30:27.022Z,25.97
2018-02-27T08:32:56.470Z,24.40
2018-02-27T08:35:25.950Z,25.90
2018-02-27T08:37:55.429Z,24.43
2018-02-27T08:40:24.899Z,26.73
2018-02-27T08:42:54.379Z,27.30
2018-02-27T08:45:24.033Z,26.03
2018-02-27T08:47:53.473Z,25.67
2018-02-27T08:50:22.939Z,25.70
2018-02-27T08:52:52.389Z,25.63
2018-02-27T08:55:21.850Z,26.27
2018-02-27T08:57:50.964Z,25.70
2018-02-27T09:00:20.401Z,25.20
2018-02-27T09:02:49.906Z,26.60
2018-02-27T09:05:19.346Z,25.40
2018-02-27T09:07:48.809Z,24.80
2018-02-27T09:10:18.250Z,25.03
2018-02-27T09:12:47.709Z,26.33
2018-02-27T09:15:17.192Z,24.97
2018-02-27T09:17:46.653Z,25.33
2018-02-27T09:20:16.148Z,23.73
2018-02-27T09:22:45.582Z,25.37
2018-02-27T09:25:14.865Z,25.73
2018-02-27T09:27:44.309Z,26.17
2018-02-27T09:30:13.766Z,25.43
2018-02-27T09:32:43.217Z,25.37
2018-02-27T09:35:12.673Z,24.90
2018-02-27T09:37:42.120Z,25.10
2018-02-27T09:40:11.262Z,25.40
2018-02-27T09:42:40.718Z,24.47
2018-02-27T09:45:10.174Z,25.20
2018-02-27T09:47:39.308Z,23.90
2018-02-27T09:50:08.758Z,25.37
2018-02-27T09:52:38.222Z,26.27
2018-02-27T09:55:07.673Z,26.40
2018-02-27T09:57:37.225Z,26.93
2018-02-27T10:00:06.689Z,28.13
2018-02-27T10:02:36.165Z,26.83
2018-02-27T10:05:05.633Z,28.10
2018-02-27T10:07:35.085Z,27.00
2018-02-27T10:10:04.218Z,27.00
2018-02-27T10:12:33.668Z,26.83
2018-02-27T10:15:03.130Z,25.70
2018-02-27T10:17:32.667Z,25.40
2018-02-27T10:20:02.130Z,26.17
2018-02-27T10:22:31.590Z,27.40
2018-02-27T10:25:01.054Z,25.07
2018-02-27T10:27:30.545Z,25.77
2018-02-27T10:30:00.294Z,25.23
2018-02-27T10:32:29.770Z,27.57
2018-02-27T10:34:58.879Z,25.63
2018-02-27T10:37:28.346Z,24.73
2018-02-27T10:39:57.809Z,26.43
2018-02-27T10:42:27.276Z,26.33
2018-02-27T10:44:56.717Z,24.73
2018-02-27T10:47:26.222Z,25.73
2018-02-27T10:49:55.660Z,26.60
2018-02-27T10:52:25.123Z,26.10
2018-02-27T10:54:54.610Z,24.40
2018-02-27T10:57:24.286Z,24.90
2018-02-27T10:59:53.749Z,24.30
2018-02-27T11:02:23.040Z,25.77
2018-02-27T11:04:53.529Z,25.57
2018-02-27T11:07:22.988Z,27.77
2018-02-27T11:09:52.658Z,26.13
2018-02-27T11:12:22.122Z,25.87
2018-02-27T11:14:51.664Z,24.57
2018-02-27T11:17:21.113Z,24.40
2018-02-27T11:19:50.690Z,25.07
2018-02-27T11:22:20.201Z,24.30
2018-02-27T11:24:49.676Z,24.50
2018-02-27T11:27:19.222Z,24.97
2018-02-27T11:29:48.665Z,22.63
2018-02-27T11:32:18.128Z,23.47
2018-02-27T11:34:47.569Z,23.53
2018-02-27T11:37:17.031Z,23.40
2018-02-27T11:39:46.530Z,24.43
2018-02-27T11:42:15.990Z,23.97
2018-02-27T11:44:45.441Z,24.53
2018-02-27T11:47:15.090Z,23.83
2018-02-27T11:49:44.557Z,23.90
2018-02-27T11:52:14.001Z,23.03
2018-02-27T11:54:43.458Z,22.17
2018-02-27T11:57:12.924Z,23.53
2018-02-27T11:59:42.393Z,23.70
2018-02-27T12:02:11.847Z,24.40
2018-02-27T12:04:41.314Z,23.83
2018-02-27T12:07:10.801Z,24.30
2018-02-27T12:09:40.269Z,23.17
2018-02-27T12:12:09.713Z,24.30
2018-02-27T12:14:39.161Z,24.57
2018-02-27T12:17:08.621Z,25.33
2018-02-27T12:19:38.112Z,24.07
2018-02-27T12:22:07.763Z,24.03
2018-02-27T12:24:37.208Z,23.10
2018-02-27T12:27:06.661Z,23.33
2018-02-27T12:29:36.121Z,25.03
2018-02-27T12:32:05.581Z,23.97
2018-02-27T12:34:35.049Z,22.80
2018-02-27T12:37:04.550Z,22.90
2018-02-27T12:39:34.007Z,20.50
2018-02-27T12:42:03.469Z,20.70
2018-02-27T12:44:32.909Z,21.50
2018-02-27T12:47:02.386Z,22.13
2018-02-27T12:49:31.834Z,22.30
2018-02-27T12:52:01.274Z,20.77
2018-02-27T12:54:30.733Z,19.87
2018-02-27T12:57:00.178Z,18.60
2018-02-27T12:59:29.670Z,19.83
2018-02-27T13:01:59.173Z,18.80
2018-02-27T13:04:28.638Z,18.37
2018-02-27T13:06:58.081Z,19.90
2018-02-27T13:09:27.546Z,18.90
2018-02-27T13:11:56.994Z,18.67
2018-02-27T13:14:26.470Z,17.83
2018-02-27T13:16:55.917Z,14.90
2018-02-27T13:19:25.382Z,16.67
2018-02-27T13:21:54.831Z,17.13
2018-02-27T13:24:24.281Z,17.77
2018-02-27T13:26:53.757Z,19.33
2018-02-27T13:29:23.212Z,20.30
2018-02-27T13:31:52.673Z,20.07
2018-02-27T13:34:22.121Z,19.67
2018-02-27T13:36:51.581Z,19.30
2018-02-27T13:39:21.041Z,20.97
2018-02-27T13:41:50.502Z,21.13
2018-02-27T13:44:19.961Z,21.87
2018-02-27T13:46:49.430Z,21.73
2018-02-27T13:49:24.843Z,21.90
2018-02-27T13:51:48.574Z,20.87
2018-02-27T13:54:18.022Z,21.40
2018-02-27T13:56:47.481Z,21.93
2018-02-27T13:59:16.937Z,19.73
2018-02-27T14:01:46.481Z,21.57
2018-02-27T14:04:15.937Z,21.60
2018-02-27T14:06:45.397Z,21.83
2018-02-27T14:09:14.855Z,22.13
2018-02-27T14:11:44.310Z,19.50
2018-02-27T14:14:13.770Z,19.23
2018-02-27T14:16:43.029Z,21.47
2018-02-27T14:19:12.473Z,20.47
2018-02-27T14:21:41.937Z,20.97
2018-02-27T14:24:11.389Z,21.10
2018-02-27T14:26:40.880Z,20.83
2018-02-27T14:29:11.098Z,20.57
2018-02-27T14:31:41.708Z,21.57
2018-02-27T14:34:11.199Z,20.43
2018-02-27T14:36:40.687Z,21.03
2018-02-27T14:39:11.436Z,20.70
2018-02-27T14:41:42.727Z,20.53
2018-02-27T14:44:13.326Z,19.73
2018-02-27T14:46:43.074Z,20.40
2018-02-27T14:49:12.631Z,22.20
2018-02-27T14:51:42.880Z,19.27
2018-02-27T14:54:12.366Z,20.23
2018-02-27T14:56:41.966Z,20.70
2018-02-27T14:59:11.451Z,20.00
2018-02-27T15:01:40.757Z,18.77
2018-02-27T15:04:10.237Z,17.90
2018-02-27T15:06:39.687Z,17.43
2018-02-27T15:09:09.185Z,18.83
2018-02-27T15:11:38.629Z,18.67
2018-02-27T15:14:08.078Z,19.53
2018-02-27T15:16:37.893Z,19.00
2018-02-27T15:19:07.350Z,18.10
2018-02-27T15:21:36.849Z,18.30
2018-02-27T15:24:06.217Z,19.13
2018-02-27T15:26:35.670Z,18.90
2018-02-27T15:29:05.134Z,18.23
2018-02-27T15:31:34.622Z,19.50
2018-02-27T15:34:04.095Z,18.77
2018-02-27T15:36:33.546Z,19.20
2018-02-27T15:39:02.806Z,20.83
2018-02-27T15:41:32.269Z,21.13
2018-02-27T15:44:01.714Z,21.33
2018-02-27T15:46:31.559Z,20.70
2018-02-27T15:49:01.013Z,20.70
2018-02-27T15:51:30.486Z,19.13
2018-02-27T15:54:00.176Z,21.37
2018-02-27T15:56:30.213Z,21.93
2018-02-27T15:58:59.661Z,20.80
2018-02-27T16:01:29.195Z,20.40
2018-02-27T16:03:58.657Z,21.67
2018-02-27T16:06:28.138Z,21.60
2018-02-27T16:08:57.601Z,22.00
2018-02-27T16:11:27.057Z,22.03
2018-02-27T16:13:56.529Z,21.93
2018-02-27T16:16:25.978Z,23.77
2018-02-27T16:18:55.118Z,22.17
2018-02-27T16:21:24.565Z,22.03
2018-02-27T16:23:54.038Z,23.47
2018-02-27T16:26:23.617Z,22.40
2018-02-27T16:28:53.058Z,22.83
2018-02-27T16:31:22.526Z,22.20
2018-02-27T16:33:52.068Z,23.30
2018-02-27T16:36:22.115Z,21.97
2018-02-27T16:38:51.672Z,22.70
2018-02-27T16:41:21.162Z,22.73
2018-02-27T16:43:50.646Z,24.33
2018-02-27T16:46:20.097Z,22.23
2018-02-27T16:48:49.581Z,24.83
2018-02-27T16:51:19.046Z,23.60
2018-02-27T16:53:48.518Z,21.90
2018-02-27T16:56:18.011Z,21.47
2018-02-27T16:58:48.269Z,24.03
2018-02-27T17:01:19.186Z,22.10
2018-02-27T17:03:48.680Z,24.30
2018-02-27T17:06:19.097Z,24.20
2018-02-27T17:08:48.642Z,23.57
2018-02-27T17:11:18.133Z,23.53
2018-02-27T17:13:47.885Z,24.80
2018-02-27T17:16:18.346Z,28.87
2018-02-27T17:18:47.971Z,26.43
2018-02-27T17:21:22.657Z,25.03
2018-02-27T17:23:54.719Z,25.53
2018-02-27T17:26:25.315Z,25.60
2018-02-27T17:28:54.800Z,23.93
2018-02-27T17:31:24.870Z,24.23
2018-02-27T17:34:02.494Z,23.97
2018-02-27T17:36:31.998Z,24.60
2018-02-27T17:39:01.544Z,24.90
2018-02-27T17:41:31.024Z,25.53
2018-02-27T17:44:00.696Z,24.13
2018-02-27T17:46:30.166Z,24.27
2018-02-27T17:49:00.581Z,24.03
2018-02-27T17:51:30.901Z,25.23
2018-02-27T17:54:00.374Z,24.23
2018-02-27T17:56:29.825Z,25.07
2018-02-27T17:58:59.278Z,24.87
2018-02-27T18:01:29.130Z,29.33
2018-02-27T18:03:59.414Z,26.87
2018-02-27T18:06:30.074Z,25.47
2018-02-27T18:09:00.650Z,26.40
2018-02-27T18:11:30.939Z,26.97
2018-02-27T18:14:00.377Z,26.20
2018-02-27T18:16:29.821Z,26.03
2018-02-27T18:18:59.368Z,26.07
2018-02-27T18:21:28.874Z,26.83
2018-02-27T18:23:59.333Z,25.77
2018-02-27T18:26:29.927Z,26.03
2018-02-27T18:28:59.434Z,26.43
2018-02-27T18:31:28.722Z,25.93
2018-02-27T18:33:59.047Z,25.87
2018-02-27T18:36:28.504Z,26.17
2018-02-27T18:38:57.957Z,28.30
2018-02-27T18:41:27.532Z,28.83
2018-02-27T18:43:57.067Z,29.33
2018-02-27T18:46:26.687Z,28.50
2018-02-27T18:48:56.139Z,27.87
2018-02-27T18:51:27.389Z,25.97
2018-02-27T18:53:56.842Z,26.87
2018-02-27T18:56:26.310Z,26.03
2018-02-27T18:58:55.801Z,26.90
2018-02-27T19:01:25.263Z,25.70
2018-02-27T19:03:55.280Z,32.47
2018-02-27T19:06:24.743Z,28.50
2018-02-27T19:08:54.291Z,26.67
2018-02-27T19:11:23.791Z,25.87
2018-02-27T19:13:53.300Z,25.37
2018-02-27T19:16:22.809Z,25.30
2018-02-27T19:18:52.270Z,25.70
2018-02-27T19:21:21.714Z,26.17
2018-02-27T19:23:51.174Z,27.17
2018-02-27T19:26:20.663Z,26.80
2018-02-27T19:28:51.012Z,27.40
2018-02-27T19:31:20.478Z,26.17
2018-02-27T19:33:49.943Z,25.43
2018-02-27T19:36:20.187Z,25.70
2018-02-27T19:38:49.665Z,26.17
2018-02-27T19:41:19.972Z,25.03
2018-02-27T19:43:50.030Z,25.13
2018-02-27T19:46:19.516Z,24.17
2018-02-27T19:48:48.994Z,25.40
2018-02-27T19:51:18.442Z,23.70
2018-02-27T19:53:48.599Z,25.00
2018-02-27T19:56:18.071Z,25.20
2018-02-27T19:58:47.518Z,24.77
2018-02-27T20:01:17.096Z,24.83
2018-02-27T20:03:46.549Z,25.43
2018-02-27T20:06:16.018Z,26.00
2018-02-27T20:08:45.801Z,24.17
2018-02-27T20:11:15.410Z,26.67
2018-02-27T20:13:44.879Z,26.80
2018-02-27T20:16:14.417Z,25.27
2018-02-27T20:18:43.895Z,26.33
2018-02-27T20:21:13.405Z,26.37
2018-02-27T20:23:48.378Z,26.80
2018-02-27T20:26:17.885Z,27.97
2018-02-27T20:28:52.901Z,29.13
2018-02-27T20:31:22.599Z,26.13
2018-02-27T20:33:52.116Z,28.50
2018-02-27T20:36:21.908Z,28.27
2018-02-27T20:38:56.971Z,26.73
2018-02-27T20:41:26.450Z,28.37
2018-02-27T20:43:55.917Z,24.13
2018-02-27T20:46:25.486Z,29.40
2018-02-27T20:48:54.956Z,29.37
2018-02-27T20:51:24.495Z,29.67
2018-02-27T20:53:54.001Z,30.07
2018-02-27T20:56:23.473Z,28.23
2018-02-27T20:58:52.914Z,30.23
2018-02-27T21:01:22.383Z,29.57
2018-02-27T21:03:51.924Z,27.27
2018-02-27T21:06:21.376Z,29.00
2018-02-27T21:08:51.471Z,27.13
2018-02-27T21:11:20.930Z,27.20
2018-02-27T21:13:50.401Z,27.00
2018-02-27T21:16:19.846Z,28.53
2018-02-27T21:18:49.130Z,26.93
2018-02-27T21:21:18.577Z,26.73
2018-02-27T21:23:48.025Z,27.20
2018-02-27T21:26:17.487Z,26.97
2018-02-27T21:28:46.933Z,27.70
2018-02-27T21:31:16.429Z,26.87
2018-02-27T21:33:46.081Z,28.70
2018-02-27T21:36:15.564Z,27.87
2018-02-27T21:38:45.037Z,28.90
2018-02-27T21:41:14.812Z,28.30
2018-02-27T21:43:44.315Z,26.30
2018-02-27T21:46:13.864Z,27.53
2018-02-27T21:48:43.633Z,27.27
2018-02-27T21:51:13.146Z,28.57
2018-02-27T21:53:42.622Z,26.60
2018-02-27T21:56:12.077Z,27.00
2018-02-27T21:58:41.533Z,27.23
2018-02-27T22:01:10.975Z,26.80
2018-02-27T22:03:40.434Z,26.83
2018-02-27T22:06:09.878Z,26.10
2018-02-27T22:08:39.325Z,25.37
2018-02-27T22:11:08.786Z,27.90
2018-02-27T22:13:38.230Z,28.23
2018-02-27T22:16:07.741Z,26.93
2018-02-27T22:18:37.202Z,28.17
2018-02-27T22:21:07.397Z,28.83
2018-02-27T22:23:36.857Z,28.00
2018-02-27T22:26:06.322Z,26.43
2018-02-27T22:28:35.802Z,28.10
2018-02-27T22:31:05.301Z,27.07
2018-02-27T22:33:34.757Z,27.13
2018-02-27T22:36:04.214Z,28.03
2018-02-27T22:38:33.686Z,29.13
2018-02-27T22:41:03.145Z,27.37
2018-02-27T22:43:32.861Z,28.90
2018-02-27T22:46:02.329Z,24.30
2018-02-27T22:48:31.789Z,25.37
2018-02-27T22:51:01.262Z,28.73
2018-02-27T22:53:30.721Z,26.63
2018-02-27T22:56:00.190Z,28.17
2018-02-27T22:58:29.653Z,24.27
2018-02-27T23:00:59.116Z,25.67
2018-02-27T23:03:28.583Z,24.63
2018-02-27T23:05:58.025Z,26.90
2018-02-27T23:08:27.497Z,25.27
2018-02-27T23:10:56.758Z,25.90
2018-02-27T23:13:26.217Z,25.50
2018-02-27T23:15:55.657Z,22.77
2018-02-27T23:18:25.113Z,26.13
2018-02-27T23:20:54.552Z,23.23
2018-02-27T23:23:24.015Z,24.33
2018-02-27T23:26:04.246Z,22.57
2018-02-27T23:28:36.813Z,22.97
2018-02-27T23:31:06.521Z,19.73
2018-02-27T23:33:37.777Z,22.43
2018-02-27T23:36:07.382Z,23.67
2018-02-27T23:38:36.841Z,25.37
2018-02-27T23:41:06.309Z,25.13
2018-02-27T23:43:35.765Z,26.43
2018-02-27T23:46:05.314Z,24.10
2018-02-27T23:48:34.834Z,24.57
2018-02-27T23:51:04.294Z,23.73
2018-02-27T23:53:33.737Z,24.47
2018-02-27T23:56:03.193Z,25.20
2018-02-27T23:58:32.641Z,25.17
